KALW/ALW METAR and TAF weather

Enter ICAO airport designator
Station Type Date Time Source
KALW METAR 2019/05/23 18:53 UTC NOAA

KALW 231853Z 19005KT 10SM CLR 19/08 A2989 RMK AO2 SLP122 T01890083


Station Type Date Time Source
KALW Decoded METAR 2019/05/23 18:53 UTC NOAA

WALLA WALLA REGIONAL AIRPORT, WA, United States (KALW) 46-06N 118-17W 363M
May 23, 2019 - 02:53 PM EDT / 2019.05.23 1853 UTC
Wind: from the S (190 degrees) at 6 MPH (5 KT):0
Visibility: 10 mile(s):0
Sky conditions: clear
Temperature: 66.0 F (18.9 C)
Dew Point: 46.9 F (8.3 C)
Relative Humidity: 50%
Pressure (altimeter): 29.89 in. Hg (1012 hPa)
ob: KALW 231853Z 19005KT 10SM CLR 19/08 A2989 RMK AO2 SLP122 T01890083
cycle: 19

Station Type Date Time Source
KALW TAF 2019/05/23 18:22 UTC NOAA

TAF KALW 231720Z 2318/2418 23007KT P6SM SKC
FM232000 34009KT P6SM SCT070
FM240400 21010KT P6SM BKN100

Example: see airport list